Time;durP1;ratioP1;P1;durP2;ratioP2;P2;SDS_P1;SDS_P2;PMS_P1;PMS_P2;Temp;Humidity;BMP_temperature;BMP_pressure;BME280_temperature;BME280_humidity;BME280_pressure;Samples;Min_cycle;Max_cycle;Signal;HPM_P1;HPM_P2
2021/11/10 00:00:51;;;;;;;72.78;38.92;;;;;;;0.08;76.81;98733.64;1692669;84;25771;-82
2021/11/10 00:03:18;;;;;;;70.08;37.23;;;;;;;0.04;76.66;98733.98;1689646;83;25807;-82
2021/11/10 00:05:44;;;;;;;71.30;37.25;;;;;;;-0.02;76.65;98741.45;1693821;83;25282;-82
2021/11/10 00:08:11;;;;;;;75.20;37.23;;;;;;;-0.04;76.66;98746.02;1692400;83;27520;-82
2021/11/10 00:10:38;;;;;;;72.08;36.77;;;;;;;-0.08;76.68;98737.05;1649856;86;26053;-82
2021/11/10 00:13:20;;;;;;;79.47;39.50;;;;;;;-0.10;76.70;98742.95;1653967;85;25835;-82
2021/11/10 00:15:50;;;;;;;72.50;39.05;;;;;;;-0.13;76.65;98740.55;1628156;87;25824;-82
2021/11/10 00:18:18;;;;;;;74.37;37.48;;;;;;;-0.15;76.71;98737.15;1633992;87;25796;-82
2021/11/10 00:20:45;;;;;;;70.60;39.05;;;;;;;-0.14;76.79;98741.50;1660673;85;27366;-82
2021/11/10 00:23:13;;;;;;;65.10;36.25;;;;;;;-0.12;76.83;98743.56;1692987;83;26382;-82
2021/11/10 00:25:40;;;;;;;63.48;35.38;;;;;;;-0.11;76.87;98742.58;1693936;83;25867;-82
2021/11/10 00:28:07;;;;;;;60.00;32.53;;;;;;;-0.22;76.75;98733.23;1673952;84;26706;-82
2021/11/10 00:30:34;;;;;;;55.28;28.27;;;;;;;-0.18;76.83;98738.22;1690851;84;25747;-82
2021/11/10 00:33:01;;;;;;;56.05;29.60;;;;;;;-0.16;76.87;98750.05;1694137;83;27362;-83
2021/11/10 00:35:28;;;;;;;62.23;31.93;;;;;;;-0.18;76.78;98749.30;1692425;83;25775;-82
2021/11/10 00:37:55;;;;;;;59.18;31.75;;;;;;;-0.19;76.81;98751.11;1691148;83;25819;-82
2021/11/10 00:40:22;;;;;;;72.20;35.38;;;;;;;-0.21;76.76;98749.52;1691702;84;25806;-82
2021/11/10 00:42:49;;;;;;;68.33;35.75;;;;;;;-0.22;76.75;98744.69;1689779;84;25783;-82
2021/11/10 00:45:15;;;;;;;70.32;36.93;;;;;;;-0.22;76.77;98739.86;1694456;83;27409;-82
2021/11/10 00:47:42;;;;;;;74.03;36.65;;;;;;;-0.22;76.79;98746.50;1694723;83;25975;-82
2021/11/10 00:50:10;;;;;;;67.65;34.55;;;;;;;-0.23;76.86;98748.30;1689690;83;25756;-82
2021/11/10 00:52:37;;;;;;;61.88;31.12;;;;;;;-0.24;76.96;98743.13;1692026;83;25792;-83
2021/11/10 00:55:05;;;;;;;57.62;29.98;;;;;;;-0.21;77.00;98742.89;1694184;83;25739;-82
2021/11/10 00:57:32;;;;;;;59.13;30.02;;;;;;;-0.22;76.92;98750.48;1694219;83;27382;-82
2021/11/10 00:59:58;;;;;;;57.35;31.02;;;;;;;-0.28;76.86;98752.27;1694320;83;25788;-82
2021/11/10 01:02:25;;;;;;;58.10;29.40;;;;;;;-0.29;76.92;98745.27;1694095;83;25735;-82
2021/11/10 01:04:52;;;;;;;48.70;26.48;;;;;;;-0.28;76.95;98748.28;1694429;83;26245;-82
2021/11/10 01:07:19;;;;;;;51.53;25.80;;;;;;;-0.25;76.98;98746.75;1694509;83;25727;-82
2021/11/10 01:09:47;;;;;;;49.53;24.72;;;;;;;-0.28;76.95;98739.00;1694406;83;27990;-82
2021/11/10 01:12:15;;;;;;;46.45;24.32;;;;;;;-0.32;76.94;98741.02;1694265;84;25719;-82
2021/11/10 01:14:42;;;;;;;44.40;22.13;;;;;;;-0.33;76.91;98733.16;1694475;83;25550;-82
2021/11/10 01:17:09;;;;;;;45.55;23.77;;;;;;;-0.37;76.92;98728.10;1694295;83;26416;-82
2021/11/10 01:19:41;;;;;;;48.60;25.08;;;;;;;-0.40;77.10;98729.64;1683686;83;26083;-82
2021/11/10 01:22:05;;;;;;;55.73;27.85;;;;;;;-0.40;77.20;98730.97;1714800;83;27796;-82
2021/11/10 01:24:32;;;;;;;52.23;26.70;;;;;;;-0.42;77.25;98728.91;1718041;83;25705;-82
2021/11/10 01:26:59;;;;;;;52.10;27.15;;;;;;;-0.40;77.23;98733.63;1720020;83;25779;-82
2021/11/10 01:29:25;;;;;;;58.10;28.52;;;;;;;-0.40;77.12;98732.77;1719847;83;26486;-82
2021/11/10 01:31:52;;;;;;;60.63;28.52;;;;;;;-0.41;77.17;98728.42;1719694;83;25721;-82
2021/11/10 01:34:19;;;;;;;52.90;25.75;;;;;;;-0.40;77.17;98729.64;1720147;83;28204;-82
2021/11/10 01:36:45;;;;;;;54.67;26.30;;;;;;;-0.41;77.19;98718.66;1720044;83;25773;-82
2021/11/10 01:39:12;;;;;;;53.52;26.30;;;;;;;-0.38;77.16;98715.80;1719740;83;25300;-82
2021/11/10 01:41:45;;;;;;;52.88;24.72;;;;;;;-0.39;77.04;98716.75;1719868;83;26540;-82
2021/11/10 01:44:17;;;;;;;52.55;25.57;;;;;;;-0.45;76.98;98705.23;1719992;83;26501;-82
2021/11/10 01:46:44;;;;;;;55.15;25.27;;;;;;;-0.47;77.02;98701.84;1719984;83;27372;-82
2021/11/10 01:49:11;;;;;;;52.17;24.47;;;;;;;-0.47;77.07;98700.52;1710338;83;25798;-82
2021/11/10 01:51:51;;;;;;;47.95;23.40;;;;;;;-0.53;77.00;98698.33;1716153;83;25943;-82
2021/11/10 01:54:20;;;;;;;49.73;24.10;;;;;;;-0.55;77.10;98693.61;1708187;83;26545;-82
2021/11/10 01:56:49;;;;;;;44.95;23.22;;;;;;;-0.55;77.22;98693.61;1685407;85;25700;-82
2021/11/10 01:59:32;;;;;;;46.30;23.65;;;;;;;-0.55;77.08;98694.93;1667596;85;27621;-82
2021/11/10 02:02:02;;;;;;;44.50;24.00;;;;;;;-0.57;77.12;98698.16;1649056;85;25897;-82
2021/11/10 02:04:33;;;;;;;66.95;35.92;;;;;;;-0.56;77.26;98705.64;1655175;85;25828;-81
2021/11/10 02:07:01;;;;;;;51.77;28.70;;;;;;;-0.59;77.15;98698.75;1664298;85;25846;-82
2021/11/10 02:09:29;;;;;;;48.75;25.35;;;;;;;-0.65;77.08;98704.51;1668292;85;26429;-82
2021/11/10 02:11:58;;;;;;;49.45;24.80;;;;;;;-0.65;77.16;98705.84;1668170;85;27387;-82
2021/11/10 02:14:27;;;;;;;51.37;24.92;;;;;;;-0.63;77.17;98701.75;1668171;85;25821;-82
2021/11/10 02:16:56;;;;;;;41.18;23.57;;;;;;;-0.62;77.19;98695.50;1667916;85;25789;-82
2021/11/10 02:19:24;;;;;;;45.40;23.00;;;;;;;-0.61;77.12;98710.45;1664362;85;25737;-82
2021/11/10 02:21:54;;;;;;;45.33;24.12;;;;;;;-0.63;77.15;98702.60;1653084;86;25887;-82
2021/11/10 02:24:24;;;;;;;42.83;22.20;;;;;;;-0.62;77.19;98701.65;1648783;86;28444;-81
2021/11/10 02:26:51;;;;;;;42.83;24.27;;;;;;;-0.60;77.24;98707.66;1655627;86;25721;-83
2021/11/10 02:29:26;;;;;;;41.30;22.07;;;;;;;-0.62;77.13;98698.14;1655726;86;25734;-82
2021/11/10 02:31:55;;;;;;;41.70;21.62;;;;;;;-0.68;77.08;98700.74;1638285;86;25822;-82
2021/11/10 02:34:22;;;;;;;48.48;24.40;;;;;;;-0.74;77.11;98706.50;1645705;86;25734;-82
2021/11/10 02:36:49;;;;;;;44.95;24.00;;;;;;;-0.84;77.30;98704.11;1655670;86;27456;-82
2021/11/10 02:39:20;;;;;;;44.95;23.77;;;;;;;-0.85;77.47;98711.72;1655650;86;25688;-82
2021/11/10 02:41:47;;;;;;;41.37;20.65;;;;;;;-0.87;77.53;98709.17;1655782;86;25319;-82
2021/11/10 02:44:18;;;;;;;31.55;19.17;;;;;;;-0.90;77.66;98705.87;1655305;86;26556;-82
2021/11/10 02:46:48;;;;;;;36.28;17.90;;;;;;;-0.92;77.83;98710.44;1654310;86;25682;-82
2021/11/10 02:49:15;;;;;;;34.58;18.50;;;;;;;-0.91;77.93;98706.83;1655614;86;27375;-82
2021/11/10 02:52:05;;;;;;;35.28;19.37;;;;;;;-0.91;77.94;98713.46;1655652;86;25780;-82
2021/11/10 02:54:35;;;;;;;36.65;20.10;;;;;;;-0.91;77.96;98708.16;1655679;85;25788;-82
2021/11/10 02:57:05;;;;;;;35.75;19.73;;;;;;;-0.94;77.97;98695.11;1645722;86;25786;-82
2021/11/10 02:59:33;;;;;;;37.93;19.87;;;;;;;-0.96;78.08;98708.47;1645378;86;25829;-82
2021/11/10 03:02:02;;;;;;;34.40;18.92;;;;;;;-0.99;78.29;98700.77;1666219;85;27540;-82
2021/11/10 03:04:32;;;;;;;36.28;20.00;;;;;;;-1.00;78.40;98687.61;1658091;86;25794;-82
2021/11/10 03:07:00;;;;;;;31.30;17.50;;;;;;;-0.96;78.38;98691.24;1667278;85;25827;-81
2021/11/10 03:09:30;;;;;;;30.30;17.40;;;;;;;-0.97;78.41;98688.25;1660165;86;26445;-82
2021/11/10 03:12:00;;;;;;;29.40;16.67;;;;;;;-0.99;78.44;98691.48;1646815;86;26016;-82
2021/11/10 03:14:29;;;;;;;28.52;17.52;;;;;;;-0.99;78.45;98690.63;1655058;86;27385;-82
2021/11/10 03:16:57;;;;;;;33.13;18.05;;;;;;;-0.96;78.47;98677.14;1645686;86;26427;-82
2021/11/10 03:19:23;;;;;;;36.50;17.62;;;;;;;-0.94;78.41;98688.48;1656894;86;25723;-82
2021/11/10 03:21:50;;;;;;;37.48;18.52;;;;;;;-0.93;78.38;98683.56;1653654;86;25858;-82
2021/11/10 03:24:17;;;;;;;36.95;20.15;;;;;;;-0.89;78.38;98678.42;1660436;84;25806;-82
2021/11/10 03:26:44;;;;;;;43.15;21.82;;;;;;;-0.86;78.37;98676.89;1669624;84;28034;-81
2021/11/10 03:29:12;;;;;;;43.40;21.17;;;;;;;-0.81;78.39;98681.36;1663003;86;25792;-81
2021/11/10 03:31:40;;;;;;;38.33;20.68;;;;;;;-0.80;78.36;98676.43;1660416;84;25793;-82
2021/11/10 03:34:10;;;;;;;39.15;21.52;;;;;;;-0.76;78.34;98665.98;1692183;84;25780;-81
2021/11/10 03:36:38;;;;;;;32.35;17.62;;;;;;;-0.78;78.30;98670.55;1690418;84;25746;-82
2021/11/10 03:39:09;;;;;;;32.33;17.60;;;;;;;-0.76;78.38;98671.29;1690763;83;27478;-81
2021/11/10 03:41:36;;;;;;;32.40;16.67;;;;;;;-0.75;78.45;98665.03;1694097;83;26466;-81
2021/11/10 03:44:04;;;;;;;32.40;17.35;;;;;;;-0.80;78.52;98653.42;1694327;83;25751;-81
2021/11/10 03:46:32;;;;;;;29.23;17.05;;;;;;;-0.83;78.55;98659.41;1694318;84;25696;-81
2021/11/10 03:48:59;;;;;;;30.10;15.95;;;;;;;-0.82;78.63;98657.13;1694350;83;25697;-81
2021/11/10 03:51:27;;;;;;;35.45;19.25;;;;;;;-0.83;78.72;98658.94;1694245;83;27403;-81
2021/11/10 03:53:54;;;;;;;30.52;18.48;;;;;;;-0.88;78.72;98653.13;1694160;84;25835;-81
2021/11/10 03:56:20;;;;;;;31.37;18.35;;;;;;;-0.86;78.70;98657.00;1694145;83;25680;-81
2021/11/10 03:58:47;;;;;;;36.03;19.40;;;;;;;-0.88;78.65;98658.44;1694252;83;26253;-81
2021/11/10 04:01:14;;;;;;;39.70;20.52;;;;;;;-0.87;78.67;98659.28;1691840;84;25723;-81
2021/11/10 04:03:41;;;;;;;44.53;21.77;;;;;;;-0.85;78.65;98657.38;1688896;84;27415;-81
2021/11/10 04:06:08;;;;;;;41.83;20.30;;;;;;;-0.82;78.66;98654.48;1687994;83;25774;-81
2021/11/10 04:08:35;;;;;;;44.88;22.15;;;;;;;-0.80;78.66;98655.22;1691483;83;25741;-81
2021/11/10 04:11:02;;;;;;;46.20;20.55;;;;;;;-0.78;78.62;98658.61;1694205;83;25789;-81
2021/11/10 04:13:30;;;;;;;50.85;23.87;;;;;;;-0.77;78.53;98666.94;1694290;83;25710;-81
2021/11/10 04:15:57;;;;;;;51.75;25.25;;;;;;;-0.82;78.51;98659.78;1694304;83;27258;-81
2021/11/10 04:18:24;;;;;;;59.40;22.52;;;;;;;-0.84;78.50;98661.69;1694197;84;25745;-81
2021/11/10 04:20:50;;;;;;;52.03;22.17;;;;;;;-0.85;78.54;98656.89;1692673;83;25886;-81
2021/11/10 04:23:17;;;;;;;53.20;24.25;;;;;;;-0.86;78.56;98647.72;1688468;84;25886;-81
2021/11/10 04:25:44;;;;;;;47.48;23.57;;;;;;;-0.88;78.58;98644.33;1694314;83;25783;-81
2021/11/10 04:28:11;;;;;;;53.42;29.12;;;;;;;-0.89;78.60;98642.16;1693530;83;28050;-82
2021/11/10 04:30:38;;;;;;;58.68;26.90;;;;;;;-0.92;78.60;98641.05;1694208;83;26147;-81
2021/11/10 04:33:05;;;;;;;39.48;21.70;;;;;;;-0.91;78.68;98635.27;1694301;83;25755;-81
2021/11/10 04:35:31;;;;;;;41.53;21.20;;;;;;;-0.97;78.77;98629.09;1691127;83;25970;-81
2021/11/10 04:37:58;;;;;;;51.70;25.80;;;;;;;-0.95;78.89;98636.43;1687908;83;25747;-81
2021/11/10 04:40:25;;;;;;;54.10;27.22;;;;;;;-0.93;78.88;98630.07;1694178;84;27532;-81
2021/11/10 04:42:52;;;;;;;57.98;28.87;;;;;;;-0.90;78.87;98618.41;1694195;83;25806;-81
2021/11/10 04:45:28;;;;;;;51.42;26.00;;;;;;;-0.89;78.86;98616.13;1694281;83;25808;-81
2021/11/10 04:47:47;;;;;;;49.20;23.42;;;;;;;-0.87;78.81;98611.56;1695140;83;25727;-81
2021/11/10 04:50:13;;;;;;;42.88;20.90;;;;;;;-0.92;78.75;98616.34;1694229;83;25695;-81
2021/11/10 04:52:40;;;;;;;32.50;18.52;;;;;;;-0.98;78.81;98611.49;1694294;83;27406;-82
2021/11/10 04:55:08;;;;;;;48.25;20.95;;;;;;;-0.94;78.94;98616.92;1694162;83;25760;-81
2021/11/10 04:57:35;;;;;;;43.70;22.50;;;;;;;-0.90;78.97;98611.78;1694530;84;26111;-81
2021/11/10 05:00:02;;;;;;;39.78;23.20;;;;;;;-0.88;78.90;98610.72;1694377;83;25717;-81
2021/11/10 05:02:29;;;;;;;43.52;25.50;;;;;;;-0.83;78.86;98610.36;1694199;83;25736;-81
2021/11/10 05:04:56;;;;;;;42.00;23.32;;;;;;;-0.88;78.74;98605.89;1692055;83;27359;-81
2021/11/10 05:07:23;;;;;;;37.17;20.45;;;;;;;-0.93;78.71;98608.02;1693160;83;26586;-81
2021/11/10 05:09:51;;;;;;;45.35;23.77;;;;;;;-0.96;78.87;98606.91;1690844;84;25771;-81
2021/11/10 05:12:18;;;;;;;40.50;22.32;;;;;;;-0.99;79.00;98604.02;1689437;83;26671;-81
2021/11/10 05:14:45;;;;;;;43.68;20.75;;;;;;;-1.01;79.03;98601.10;1683861;84;25687;-81
2021/11/10 05:17:12;;;;;;;45.98;21.77;;;;;;;-0.99;79.07;98603.17;1686866;84;28038;-82
2021/11/10 05:19:39;;;;;;;48.78;23.20;;;;;;;-1.00;79.19;98602.80;1692136;84;25824;-82
2021/11/10 05:22:06;;;;;;;51.88;23.87;;;;;;;-0.99;79.28;98609.80;1694033;83;25779;-82
2021/11/10 05:24:33;;;;;;;63.52;26.85;;;;;;;-1.02;79.23;98607.36;1694236;84;25709;-82
2021/11/10 05:26:59;;;;;;;69.70;28.27;;;;;;;-1.01;79.23;98604.60;1660898;86;25288;-82
2021/11/10 05:29:26;;;;;;;60.95;28.07;;;;;;;-1.00;79.26;98612.08;1652721;86;27522;-82
2021/11/10 05:31:53;;;;;;;68.65;29.02;;;;;;;-0.97;79.35;98603.91;1694448;83;25730;-81
2021/11/10 05:34:19;;;;;;;68.97;28.52;;;;;;;-0.94;79.39;98604.99;1691470;83;25716;-82
2021/11/10 05:36:46;;;;;;;55.48;24.43;;;;;;;-1.02;79.30;98604.70;1692423;83;26265;-82
2021/11/10 05:39:12;;;;;;;50.65;22.25;;;;;;;-1.01;79.35;98617.01;1691902;84;25721;-81
2021/11/10 05:41:39;;;;;;;51.95;23.40;;;;;;;-1.02;79.44;98617.96;1690682;84;27401;-81
2021/11/10 05:44:06;;;;;;;49.50;23.32;;;;;;;-1.00;79.49;98616.90;1693045;84;25804;-82
2021/11/10 05:46:32;;;;;;;46.40;20.02;;;;;;;-0.98;79.44;98612.82;1691178;84;25773;-81
2021/11/10 05:48:59;;;;;;;46.77;21.05;;;;;;;-0.96;79.43;98618.83;1690808;84;26463;-82
2021/11/10 05:51:25;;;;;;;40.12;19.67;;;;;;;-0.94;79.42;98626.20;1690898;84;25837;-81
2021/11/10 05:53:54;;;;;;;47.60;20.50;;;;;;;-0.97;79.36;98613.19;1690874;84;27453;-82
2021/11/10 05:56:21;;;;;;;43.92;18.45;;;;;;;-0.99;79.39;98617.75;1690824;83;25828;-82
2021/11/10 05:58:51;;;;;;;40.73;19.82;;;;;;;-1.02;79.41;98612.66;1692318;83;25749;-81
2021/11/10 06:01:18;;;;;;;50.58;21.80;;;;;;;-1.04;79.42;98612.77;1691715;84;25684;-82
2021/11/10 06:03:45;;;;;;;38.98;20.65;;;;;;;-1.05;79.42;98608.89;1690766;83;25861;-82
2021/11/10 06:06:12;;;;;;;36.95;19.42;;;;;;;-1.05;79.46;98611.55;1692302;84;27437;-82
2021/11/10 06:08:38;;;;;;;39.42;20.52;;;;;;;-1.05;79.53;98610.22;1693446;83;25793;-81
2021/11/10 06:11:07;;;;;;;40.80;20.90;;;;;;;-1.06;79.57;98610.70;1690875;84;25751;-82
2021/11/10 06:13:34;;;;;;;39.35;21.00;;;;;;;-1.05;79.58;98610.22;1693343;84;25670;-82
2021/11/10 06:16:01;;;;;;;36.40;18.67;;;;;;;-1.01;79.59;98611.70;1643181;86;25774;-82
2021/11/10 06:18:29;;;;;;;40.63;20.37;;;;;;;-0.96;79.60;98610.88;1651012;86;26495;-82
2021/11/10 06:20:58;;;;;;;42.40;19.12;;;;;;;-0.90;79.57;98614.43;1693856;84;25842;-82
2021/11/10 06:23:24;;;;;;;37.55;21.42;;;;;;;-0.84;79.53;98616.63;1691580;84;25770;-82
2021/11/10 06:25:51;;;;;;;43.63;20.95;;;;;;;-0.83;79.48;98613.86;1692169;84;25717;-82
2021/11/10 06:28:18;;;;;;;48.87;21.93;;;;;;;-0.81;79.45;98613.76;1694270;83;26355;-82
2021/11/10 06:30:45;;;;;;;48.23;23.90;;;;;;;-0.77;79.44;98619.22;1694341;83;28338;-82
2021/11/10 06:33:12;;;;;;;54.05;25.50;;;;;;;-0.74;79.49;98619.85;1694287;83;26396;-82
2021/11/10 06:35:38;;;;;;;52.78;28.27;;;;;;;-0.69;79.52;98623.47;1694112;83;26332;-83
2021/11/10 06:38:05;;;;;;;62.10;30.02;;;;;;;-0.65;79.66;98620.98;1694209;83;25834;-83
2021/11/10 06:40:32;;;;;;;59.70;25.90;;;;;;;-0.58;79.78;98623.53;1694316;83;25730;-83
2021/11/10 06:42:58;;;;;;;60.65;26.20;;;;;;;-0.58;79.79;98614.73;1693002;83;27535;-83
2021/11/10 06:45:25;;;;;;;41.40;23.12;;;;;;;-0.55;79.92;98615.36;1688546;84;25717;-83
2021/11/10 06:47:52;;;;;;;44.70;23.73;;;;;;;-0.50;79.97;98622.52;1691060;83;25786;-83
2021/11/10 06:50:19;;;;;;;49.95;25.20;;;;;;;-0.46;80.05;98630.59;1687971;83;26375;-83
2021/11/10 06:52:46;;;;;;;53.85;28.02;;;;;;;-0.43;80.09;98625.07;1688593;83;25796;-82
2021/11/10 06:55:12;;;;;;;42.03;24.25;;;;;;;-0.36;80.15;98632.08;1688591;83;27401;-83
2021/11/10 06:57:39;;;;;;;47.98;25.52;;;;;;;-0.30;80.26;98626.81;1691515;83;26379;-82
2021/11/10 07:00:14;;;;;;;49.95;26.97;;;;;;;-0.24;80.29;98625.05;1694307;83;26316;-83
2021/11/10 07:02:41;;;;;;;49.10;26.73;;;;;;;-0.20;80.24;98622.03;1689322;83;25818;-83
2021/11/10 07:05:09;;;;;;;47.40;26.00;;;;;;;-0.13;80.31;98617.12;1692210;84;25812;-83
2021/11/10 07:07:35;;;;;;;44.15;22.17;;;;;;;-0.09;80.29;98622.55;1690893;84;28165;-82
2021/11/10 07:10:04;;;;;;;36.25;20.15;;;;;;;-0.04;80.40;98624.39;1689007;84;25679;-82
2021/11/10 07:12:31;;;;;;;38.50;20.30;;;;;;;0.05;80.56;98625.50;1691214;84;25711;-81
2021/11/10 07:14:57;;;;;;;36.53;19.35;;;;;;;0.12;80.64;98625.42;1691256;83;26446;-82
2021/11/10 07:17:24;;;;;;;34.85;20.55;;;;;;;0.19;80.69;98610.22;1688047;83;25710;-83
2021/11/10 07:19:51;;;;;;;39.30;20.57;;;;;;;0.29;80.80;98619.16;1694300;83;28179;-83
2021/11/10 07:22:19;;;;;;;43.65;23.18;;;;;;;0.41;80.87;98623.17;1693973;83;25810;-82
2021/11/10 07:24:45;;;;;;;43.87;23.73;;;;;;;0.53;80.94;98620.89;1689465;84;25762;-82
2021/11/10 07:27:12;;;;;;;45.80;23.00;;;;;;;0.65;81.00;98623.92;1694295;83;26447;-82
2021/11/10 07:29:39;;;;;;;49.80;24.80;;;;;;;0.76;80.98;98614.63;1694073;84;25847;-82
2021/11/10 07:32:06;;;;;;;46.60;25.43;;;;;;;0.83;80.88;98611.02;1687849;84;28211;-82
2021/11/10 07:34:32;;;;;;;47.75;24.32;;;;;;;0.91;80.91;98608.10;1693836;84;26208;-82
2021/11/10 07:36:59;;;;;;;49.88;25.12;;;;;;;1.02;80.86;98609.91;1694341;83;25740;-81
2021/11/10 07:39:28;;;;;;;53.55;25.70;;;;;;;1.12;80.84;98606.02;1694178;83;26447;-80
2021/11/10 07:41:54;;;;;;;59.18;27.25;;;;;;;1.26;80.88;98607.94;1694483;83;26604;-80
2021/11/10 07:44:23;;;;;;;54.63;27.70;;;;;;;1.39;80.96;98598.47;1694295;84;28150;-82
2021/11/10 07:46:53;;;;;;;67.55;34.10;;;;;;;1.52;80.90;98599.16;1687915;83;26505;-81
2021/11/10 07:49:21;;;;;;;60.35;28.38;;;;;;;1.65;80.83;98601.18;1692666;83;25918;-80
2021/11/10 07:51:47;;;;;;;38.08;21.37;;;;;;;1.76;80.76;98595.81;1694332;83;26481;-79
2021/11/10 07:54:15;;;;;;;43.40;21.73;;;;;;;1.87;80.83;98590.08;1697006;83;25825;-82
2021/11/10 07:56:42;;;;;;;42.38;19.85;;;;;;;2.01;80.83;98593.28;1694366;84;28037;-80
2021/11/10 07:59:08;;;;;;;37.42;19.87;;;;;;;2.15;80.80;98590.78;1694257;84;26115;-82
2021/11/10 08:01:35;;;;;;;42.73;22.95;;;;;;;2.31;80.89;98584.49;1694292;84;26388;-82
2021/11/10 08:04:04;;;;;;;52.75;25.62;;;;;;;2.47;80.84;98589.36;1694367;84;25666;-81
2021/11/10 08:06:32;;;;;;;50.40;23.40;;;;;;;2.61;80.79;98590.84;1694370;84;25796;-80
2021/11/10 08:08:59;;;;;;;48.83;20.32;;;;;;;2.76;80.77;98582.85;1691041;83;28183;-82
2021/11/10 08:11:26;;;;;;;53.08;23.85;;;;;;;2.93;80.71;98576.87;1690291;83;26367;-82
2021/11/10 08:13:53;;;;;;;78.10;30.40;;;;;;;3.12;80.64;98570.28;1689361;84;25739;-81
2021/11/10 08:16:20;;;;;;;50.48;23.50;;;;;;;3.35;80.62;98567.37;1694384;83;25865;-82
2021/11/10 08:18:46;;;;;;;52.17;22.87;;;;;;;3.58;80.64;98566.14;1694306;83;25853;-81
2021/11/10 08:21:13;;;;;;;80.32;28.45;;;;;;;3.80;80.48;98563.69;1694267;83;27594;-82
2021/11/10 08:23:39;;;;;;;67.90;25.15;;;;;;;4.02;80.39;98551.85;1693886;83;26628;-84
2021/11/10 08:26:06;;;;;;;72.03;26.52;;;;;;;4.35;80.29;98552.70;1691763;84;26613;-81
2021/11/10 08:28:33;;;;;;;45.48;18.95;;;;;;;4.67;80.14;98549.67;1662915;85;25639;-83
2021/11/10 08:31:00;;;;;;;24.07;12.33;;;;;;;4.92;79.75;98544.14;1694302;83;25711;-82
2021/11/10 08:33:28;;;;;;;23.65;12.33;;;;;;;5.21;79.39;98544.81;1694350;84;28241;-82
2021/11/10 08:35:56;;;;;;;20.32;11.75;;;;;;;5.46;79.00;98552.63;1694183;83;25357;-84
2021/11/10 08:38:23;;;;;;;21.73;11.18;;;;;;;5.78;78.91;98552.13;1692894;83;25728;-81
2021/11/10 08:40:51;;;;;;;22.52;11.70;;;;;;;6.17;78.93;98548.61;1689190;83;26280;-82
2021/11/10 08:43:19;;;;;;;20.68;11.05;;;;;;;6.51;78.44;98550.05;1689880;83;25688;-83
2021/11/10 08:45:49;;;;;;;19.95;9.60;;;;;;;6.81;77.87;98540.15;1691325;83;28202;-86
2021/11/10 08:48:17;;;;;;;20.60;10.35;;;;;;;7.13;77.36;98530.55;1690241;84;26548;-85
2021/11/10 08:50:45;;;;;;;14.78;9.65;;;;;;;7.45;76.93;98533.35;1691275;83;26525;-82
2021/11/10 08:53:20;;;;;;;18.05;9.83;;;;;;;7.75;76.59;98531.03;1689908;84;26316;-83
2021/11/10 08:55:51;;;;;;;17.23;9.80;;;;;;;8.11;75.93;98532.91;1656023;85;26062;-83
2021/11/10 08:58:18;;;;;;;14.55;9.50;;;;;;;8.39;75.28;98540.16;1662949;84;27457;-83
2021/11/10 09:00:46;;;;;;;15.58;8.40;;;;;;;8.65;74.91;98536.75;1662821;84;25268;-83
2021/11/10 09:03:14;;;;;;;15.43;9.50;;;;;;;8.90;74.47;98535.68;1662904;84;25739;-82
2021/11/10 09:05:41;;;;;;;14.70;8.80;;;;;;;9.09;73.50;98522.80;1691114;83;26209;-83
2021/11/10 09:08:08;;;;;;;12.68;8.50;;;;;;;9.32;73.24;98529.09;1688008;83;25807;-83
2021/11/10 09:10:35;;;;;;;14.60;9.25;;;;;;;9.59;72.77;98524.56;1693684;83;28185;-86
2021/11/10 09:13:03;;;;;;;14.50;8.95;;;;;;;9.88;72.45;98516.30;1694203;83;25930;-83
2021/11/10 09:15:32;;;;;;;12.98;8.33;;;;;;;10.14;71.84;98517.27;1692164;83;25270;-83
2021/11/10 09:18:02;;;;;;;14.55;9.68;;;;;;;10.37;71.19;98517.59;1692230;84;25840;-85
2021/11/10 09:20:29;;;;;;;17.85;8.90;;;;;;;10.57;70.79;98506.26;1694442;83;25733;-85
2021/11/10 09:22:58;;;;;;;13.35;8.00;;;;;;;10.80;70.41;98505.67;1694175;83;27416;-83
2021/11/10 09:25:28;;;;;;;16.07;8.90;;;;;;;11.03;69.77;98500.16;1694359;83;25707;-84
2021/11/10 09:27:56;;;;;;;14.40;8.73;;;;;;;11.27;69.59;98503.91;1694406;84;25783;-84
2021/11/10 09:30:24;;;;;;;16.82;8.70;;;;;;;11.47;68.38;98504.97;1694133;83;26782;-87
2021/11/10 09:32:53;;;;;;;13.85;8.05;;;;;;;11.49;66.58;98499.37;1694395;83;25775;-87
2021/11/10 09:35:21;;;;;;;9.88;6.40;;;;;;;11.47;66.54;98490.64;1692738;83;26476;-85
2021/11/10 09:37:49;;;;;;;10.53;5.70;;;;;;;11.62;66.97;98491.41;1687772;84;25727;-88
2021/11/10 09:40:18;;;;;;;9.35;5.87;;;;;;;11.86;66.43;98488.88;1688541;84;26571;-87
2021/11/10 09:42:45;;;;;;;9.58;5.95;;;;;;;12.17;65.75;98489.91;1689329;84;25723;-86
2021/11/10 09:45:17;;;;;;;9.43;6.03;;;;;;;12.41;65.43;98481.36;1690636;83;25747;-86
2021/11/10 09:47:45;;;;;;;7.90;5.58;;;;;;;12.61;64.76;98482.33;1691268;83;27362;-86
2021/11/10 09:50:19;;;;;;;9.55;5.78;;;;;;;12.94;63.33;98481.69;1694301;83;26397;-88
2021/11/10 09:52:47;;;;;;;8.15;5.67;;;;;;;13.22;63.63;98481.14;1693635;83;25765;-86
2021/11/10 09:55:18;;;;;;;7.30;5.80;;;;;;;13.35;62.72;98476.29;1693182;83;25914;-87
2021/11/10 09:57:47;;;;;;;6.97;5.30;;;;;;;13.47;62.40;98476.02;1654827;84;25664;-87
2021/11/10 10:00:21;;;;;;;7.53;5.42;;;;;;;13.60;61.68;98473.87;1663007;84;27366;-89
2021/11/10 10:02:50;;;;;;;7.33;5.47;;;;;;;13.82;61.47;98474.53;1694093;83;25725;-88
2021/11/10 10:05:20;;;;;;;8.98;5.65;;;;;;;14.07;60.46;98476.97;1693100;83;25760;-87
2021/11/10 10:07:52;;;;;;;8.63;5.42;;;;;;;14.25;60.13;98466.87;1688767;84;26357;-86
2021/11/10 10:10:22;;;;;;;9.15;4.92;;;;;;;14.43;59.35;98467.09;1666045;85;25318;-89
2021/11/10 10:12:51;;;;;;;8.85;5.55;;;;;;;14.62;58.11;98462.14;1671900;85;28064;-89
2021/11/10 10:15:18;;;;;;;9.45;6.30;;;;;;;14.83;58.48;98458.88;1662818;84;25868;-89
2021/11/10 10:17:48;;;;;;;8.60;5.65;;;;;;;15.10;58.21;98461.81;1689851;84;25832;-90
2021/11/10 10:20:33;;;;;;;6.83;5.25;;;;;;;15.32;57.93;98460.49;1678887;84;26313;-87
2021/11/10 10:23:11;;;;;;;8.13;5.25;;;;;;;15.58;57.21;98450.01;1664926;84;25818;-88
2021/11/10 10:25:46;;;;;;;8.40;5.35;;;;;;;15.72;55.95;98447.52;1639310;85;28108;-89
2021/11/10 10:28:23;;;;;;;8.53;5.53;;;;;;;15.82;55.71;98444.31;1647632;85;25908;-89
2021/11/10 10:30:58;;;;;;;8.33;5.28;;;;;;;16.07;55.74;98434.81;1637621;86;25779;-89
2021/11/10 10:33:30;;;;;;;10.93;6.30;;;;;;;16.26;54.87;98433.00;1635203;86;25800;-90
2021/11/10 10:36:07;;;;;;;8.13;5.65;;;;;;;16.46;54.80;98433.64;1611046;87;25860;-90
2021/11/10 10:38:48;;;;;;;8.48;5.70;;;;;;;16.52;53.38;98423.23;1630689;87;27406;-89
2021/11/10 10:41:29;;;;;;;13.08;6.03;;;;;;;16.63;53.39;98423.87;1607320;87;25932;-91
2021/11/10 10:44:03;;;;;;;7.10;5.45;;;;;;;16.78;52.69;98408.00;1610974;87;25808;-91
2021/11/10 10:46:33;;;;;;;6.42;4.83;;;;;;;17.03;51.99;98416.07;1611116;87;25765;-91
2021/11/10 10:49:20;;;;;;;8.53;5.08;;;;;;;17.14;51.23;98413.13;1610971;87;25316;-91
2021/11/10 10:51:56;;;;;;;8.95;5.35;;;;;;;17.35;50.72;98408.55;1610482;87;27935;-91
2021/11/10 10:54:29;;;;;;;7.87;4.92;;;;;;;17.57;50.45;98402.05;1614982;87;25761;-91
2021/11/10 10:57:01;;;;;;;6.70;4.50;;;;;;;17.85;50.53;98398.73;1612027;87;26423;-92
2021/11/10 10:59:30;;;;;;;4.70;3.60;;;;;;;18.12;50.20;98401.84;1635796;86;26382;-92
2021/11/10 11:02:03;;;;;;;5.53;4.00;;;;;;;18.28;49.41;98391.06;1634894;86;25694;-90
2021/11/10 11:04:32;;;;;;;5.00;4.33;;;;;;;18.40;48.61;98391.60;1621427;86;27500;-91
2021/11/10 11:07:07;;;;;;;6.53;4.25;;;;;;;18.53;48.91;98385.89;1622365;86;25851;-90
2021/11/10 11:09:49;;;;;;;7.25;3.87;;;;;;;18.67;48.54;98385.98;1629729;87;25766;-90
2021/11/10 11:12:34;;;;;;;4.55;3.27;;;;;;;18.78;47.90;98375.56;1619374;87;25828;-90
2021/11/10 11:15:13;;;;;;;3.72;3.27;;;;;;;18.92;47.30;98373.40;1610906;87;25881;-89
2021/11/10 11:17:43;;;;;;;7.50;5.60;;;;;;;19.04;45.46;98375.03;1619907;87;27386;-89
2021/11/10 11:20:15;;;;;;;9.13;5.50;;;;;;;18.89;46.03;98364.30;1620425;87;25767;-90
2021/11/10 11:22:47;;;;;;;7.60;5.47;;;;;;;18.92;45.08;98366.02;1619302;85;25840;-92
2021/11/10 11:25:24;;;;;;;7.50;4.83;;;;;;;18.71;46.16;98354.36;1668436;85;26681;-89
2021/11/10 11:28:07;;;;;;;7.83;5.17;;;;;;;18.76;45.61;98349.52;1668391;84;25759;-92